TAF and METAR

Decoding for American and Canadian METARs and TAFs is not fully implemented.

Could not understand the following METAR

K1S5 061135Z AUTO 25003KT 10SM SCT120 20/10 A2973 RMK AO2 T01970100
No TAF available for Sunnyside